sensor_id;sensor_type;location;lat;lon;timestamp;P1;durP1;ratioP1;P2;durP2;ratioP2
10851;SDS011;5479;52.046;6.314;2022-07-12T00:02:16;3.23;;;2.40;;
10851;SDS011;5479;52.046;6.314;2022-07-12T00:04:44;2.73;;;2.33;;
10851;SDS011;5479;52.046;6.314;2022-07-12T00:07:13;3.57;;;2.40;;
10851;SDS011;5479;52.046;6.314;2022-07-12T00:09:41;4.30;;;2.30;;
10851;SDS011;5479;52.046;6.314;2022-07-12T00:12:09;2.93;;;2.30;;
10851;SDS011;5479;52.046;6.314;2022-07-12T00:14:38;3.37;;;2.60;;
10851;SDS011;5479;52.046;6.314;2022-07-12T00:17:06;3.20;;;2.60;;
10851;SDS011;5479;52.046;6.314;2022-07-12T00:19:34;3.57;;;2.80;;
10851;SDS011;5479;52.046;6.314;2022-07-12T00:22:02;3.53;;;2.50;;
10851;SDS011;5479;52.046;6.314;2022-07-12T00:24:31;2.40;;;2.20;;
10851;SDS011;5479;52.046;6.314;2022-07-12T00:27:01;2.73;;;2.10;;
10851;SDS011;5479;52.046;6.314;2022-07-12T00:29:29;2.43;;;2.00;;
10851;SDS011;5479;52.046;6.314;2022-07-12T00:31:59;3.13;;;2.40;;
10851;SDS011;5479;52.046;6.314;2022-07-12T00:34:27;3.03;;;2.43;;
10851;SDS011;5479;52.046;6.314;2022-07-12T00:36:54;2.27;;;2.00;;
10851;SDS011;5479;52.046;6.314;2022-07-12T00:39:22;3.73;;;2.50;;
10851;SDS011;5479;52.046;6.314;2022-07-12T00:41:50;2.83;;;2.30;;
10851;SDS011;5479;52.046;6.314;2022-07-12T00:44:18;2.93;;;2.37;;
10851;SDS011;5479;52.046;6.314;2022-07-12T00:46:46;2.43;;;2.20;;
10851;SDS011;5479;52.046;6.314;2022-07-12T00:49:15;3.77;;;2.50;;
10851;SDS011;5479;52.046;6.314;2022-07-12T00:51:43;4.13;;;2.50;;
10851;SDS011;5479;52.046;6.314;2022-07-12T00:54:11;3.37;;;2.30;;
10851;SDS011;5479;52.046;6.314;2022-07-12T00:56:42;3.10;;;2.17;;
10851;SDS011;5479;52.046;6.314;2022-07-12T00:59:10;3.17;;;2.37;;
10851;SDS011;5479;52.046;6.314;2022-07-12T01:01:38;3.90;;;2.37;;
10851;SDS011;5479;52.046;6.314;2022-07-12T01:04:08;3.10;;;2.30;;
10851;SDS011;5479;52.046;6.314;2022-07-12T01:06:37;2.37;;;2.00;;
10851;SDS011;5479;52.046;6.314;2022-07-12T01:09:05;2.00;;;1.80;;
10851;SDS011;5479;52.046;6.314;2022-07-12T01:11:34;2.00;;;1.60;;
10851;SDS011;5479;52.046;6.314;2022-07-12T01:14:02;1.30;;;1.20;;
10851;SDS011;5479;52.046;6.314;2022-07-12T01:16:31;2.83;;;1.63;;
10851;SDS011;5479;52.046;6.314;2022-07-12T01:19:00;1.93;;;1.70;;
10851;SDS011;5479;52.046;6.314;2022-07-12T01:21:28;2.10;;;1.90;;
10851;SDS011;5479;52.046;6.314;2022-07-12T01:24:05;2.20;;;1.90;;
10851;SDS011;5479;52.046;6.314;2022-07-12T01:26:35;2.50;;;1.90;;
10851;SDS011;5479;52.046;6.314;2022-07-12T01:29:04;2.10;;;1.90;;
10851;SDS011;5479;52.046;6.314;2022-07-12T01:31:33;1.70;;;1.60;;
10851;SDS011;5479;52.046;6.314;2022-07-12T01:34:02;2.60;;;2.10;;
10851;SDS011;5479;52.046;6.314;2022-07-12T01:36:30;2.87;;;2.20;;
10851;SDS011;5479;52.046;6.314;2022-07-12T01:38:58;2.07;;;1.70;;
10851;SDS011;5479;52.046;6.314;2022-07-12T01:41:27;2.00;;;1.80;;
10851;SDS011;5479;52.046;6.314;2022-07-12T01:43:55;1.90;;;1.70;;
10851;SDS011;5479;52.046;6.314;2022-07-12T01:46:24;2.80;;;2.30;;
10851;SDS011;5479;52.046;6.314;2022-07-12T01:48:51;2.67;;;2.10;;
10851;SDS011;5479;52.046;6.314;2022-07-12T01:51:19;2.07;;;1.60;;
10851;SDS011;5479;52.046;6.314;2022-07-12T01:53:47;2.00;;;1.80;;
10851;SDS011;5479;52.046;6.314;2022-07-12T01:56:15;3.47;;;2.33;;
10851;SDS011;5479;52.046;6.314;2022-07-12T01:58:46;3.20;;;2.50;;
10851;SDS011;5479;52.046;6.314;2022-07-12T02:01:13;2.73;;;2.10;;
10851;SDS011;5479;52.046;6.314;2022-07-12T02:03:41;2.40;;;2.10;;
10851;SDS011;5479;52.046;6.314;2022-07-12T02:06:10;3.57;;;2.37;;
10851;SDS011;5479;52.046;6.314;2022-07-12T02:08:40;2.30;;;2.00;;
10851;SDS011;5479;52.046;6.314;2022-07-12T02:11:09;2.93;;;2.40;;
10851;SDS011;5479;52.046;6.314;2022-07-12T02:13:37;2.17;;;1.87;;
10851;SDS011;5479;52.046;6.314;2022-07-12T02:16:06;2.10;;;1.63;;
10851;SDS011;5479;52.046;6.314;2022-07-12T02:18:34;1.77;;;1.50;;
10851;SDS011;5479;52.046;6.314;2022-07-12T02:21:02;1.67;;;1.50;;
10851;SDS011;5479;52.046;6.314;2022-07-12T02:23:30;1.83;;;1.37;;
10851;SDS011;5479;52.046;6.314;2022-07-12T02:25:58;1.40;;;1.30;;
10851;SDS011;5479;52.046;6.314;2022-07-12T02:28:26;1.60;;;1.50;;
10851;SDS011;5479;52.046;6.314;2022-07-12T02:30:54;1.77;;;1.50;;
10851;SDS011;5479;52.046;6.314;2022-07-12T02:33:23;1.90;;;1.70;;
10851;SDS011;5479;52.046;6.314;2022-07-12T02:35:51;2.20;;;1.87;;
10851;SDS011;5479;52.046;6.314;2022-07-12T02:38:19;3.10;;;2.37;;
10851;SDS011;5479;52.046;6.314;2022-07-12T02:40:47;3.30;;;2.60;;
10851;SDS011;5479;52.046;6.314;2022-07-12T02:43:21;3.70;;;2.83;;
10851;SDS011;5479;52.046;6.314;2022-07-12T02:45:50;3.00;;;2.50;;
10851;SDS011;5479;52.046;6.314;2022-07-12T02:48:18;2.80;;;2.47;;
10851;SDS011;5479;52.046;6.314;2022-07-12T02:50:48;4.40;;;3.23;;
10851;SDS011;5479;52.046;6.314;2022-07-12T02:53:16;5.57;;;4.37;;
10851;SDS011;5479;52.046;6.314;2022-07-12T02:55:44;5.83;;;4.80;;
10851;SDS011;5479;52.046;6.314;2022-07-12T02:58:12;6.00;;;5.20;;
10851;SDS011;5479;52.046;6.314;2022-07-12T03:00:40;5.70;;;4.90;;
10851;SDS011;5479;52.046;6.314;2022-07-12T03:03:11;5.70;;;4.80;;
10851;SDS011;5479;52.046;6.314;2022-07-12T03:05:39;5.63;;;4.90;;
10851;SDS011;5479;52.046;6.314;2022-07-12T03:08:09;5.00;;;4.17;;
10851;SDS011;5479;52.046;6.314;2022-07-12T03:10:38;5.47;;;4.40;;
10851;SDS011;5479;52.046;6.314;2022-07-12T03:13:06;5.13;;;4.37;;
10851;SDS011;5479;52.046;6.314;2022-07-12T03:15:34;5.70;;;4.23;;
10851;SDS011;5479;52.046;6.314;2022-07-12T03:18:02;5.10;;;3.43;;
10851;SDS011;5479;52.046;6.314;2022-07-12T03:20:30;4.17;;;3.27;;
10851;SDS011;5479;52.046;6.314;2022-07-12T03:22:58;4.03;;;3.03;;
10851;SDS011;5479;52.046;6.314;2022-07-12T03:25:28;4.07;;;2.80;;
10851;SDS011;5479;52.046;6.314;2022-07-12T03:27:55;3.90;;;3.07;;
10851;SDS011;5479;52.046;6.314;2022-07-12T03:30:23;4.30;;;3.33;;
10851;SDS011;5479;52.046;6.314;2022-07-12T03:32:51;4.23;;;3.40;;
10851;SDS011;5479;52.046;6.314;2022-07-12T03:35:19;4.50;;;3.60;;
10851;SDS011;5479;52.046;6.314;2022-07-12T03:37:47;4.87;;;3.33;;
10851;SDS011;5479;52.046;6.314;2022-07-12T03:40:17;3.93;;;2.90;;
10851;SDS011;5479;52.046;6.314;2022-07-12T03:42:48;4.73;;;3.00;;
10851;SDS011;5479;52.046;6.314;2022-07-12T03:45:16;4.63;;;2.90;;
10851;SDS011;5479;52.046;6.314;2022-07-12T03:47:44;4.10;;;3.07;;
10851;SDS011;5479;52.046;6.314;2022-07-12T03:50:13;4.00;;;3.10;;
10851;SDS011;5479;52.046;6.314;2022-07-12T03:52:41;4.60;;;3.33;;
10851;SDS011;5479;52.046;6.314;2022-07-12T03:55:10;4.40;;;3.30;;
10851;SDS011;5479;52.046;6.314;2022-07-12T03:57:39;3.83;;;3.10;;
10851;SDS011;5479;52.046;6.314;2022-07-12T04:00:09;4.50;;;3.43;;
10851;SDS011;5479;52.046;6.314;2022-07-12T04:02:39;5.10;;;4.30;;
10851;SDS011;5479;52.046;6.314;2022-07-12T04:05:08;5.70;;;4.73;;
10851;SDS011;5479;52.046;6.314;2022-07-12T04:07:36;7.33;;;5.30;;
10851;SDS011;5479;52.046;6.314;2022-07-12T04:10:05;6.07;;;5.10;;
10851;SDS011;5479;52.046;6.314;2022-07-12T04:12:33;5.90;;;5.10;;
10851;SDS011;5479;52.046;6.314;2022-07-12T04:15:01;5.83;;;4.87;;
10851;SDS011;5479;52.046;6.314;2022-07-12T04:17:31;6.07;;;5.07;;
10851;SDS011;5479;52.046;6.314;2022-07-12T04:19:58;5.90;;;4.97;;
10851;SDS011;5479;52.046;6.314;2022-07-12T04:22:26;5.33;;;4.80;;
10851;SDS011;5479;52.046;6.314;2022-07-12T04:24:55;5.87;;;4.90;;
10851;SDS011;5479;52.046;6.314;2022-07-12T04:27:23;5.63;;;4.87;;
10851;SDS011;5479;52.046;6.314;2022-07-12T04:29:52;5.37;;;4.80;;
10851;SDS011;5479;52.046;6.314;2022-07-12T04:32:20;5.90;;;5.27;;
10851;SDS011;5479;52.046;6.314;2022-07-12T04:34:50;5.83;;;5.13;;
10851;SDS011;5479;52.046;6.314;2022-07-12T04:37:18;8.40;;;5.43;;
10851;SDS011;5479;52.046;6.314;2022-07-12T04:39:45;6.43;;;5.80;;
10851;SDS011;5479;52.046;6.314;2022-07-12T04:42:13;5.73;;;5.13;;
10851;SDS011;5479;52.046;6.314;2022-07-12T04:44:41;7.27;;;6.57;;
10851;SDS011;5479;52.046;6.314;2022-07-12T04:47:09;6.53;;;5.93;;
10851;SDS011;5479;52.046;6.314;2022-07-12T04:49:37;8.77;;;7.80;;
10851;SDS011;5479;52.046;6.314;2022-07-12T04:52:07;7.97;;;7.17;;
10851;SDS011;5479;52.046;6.314;2022-07-12T04:54:35;8.30;;;7.50;;
10851;SDS011;5479;52.046;6.314;2022-07-12T04:57:03;8.97;;;8.07;;
10851;SDS011;5479;52.046;6.314;2022-07-12T04:59:34;10.40;;;9.40;;
10851;SDS011;5479;52.046;6.314;2022-07-12T05:02:02;9.57;;;8.67;;
10851;SDS011;5479;52.046;6.314;2022-07-12T05:04:31;9.83;;;8.93;;
10851;SDS011;5479;52.046;6.314;2022-07-12T05:06:59;10.30;;;9.30;;
10851;SDS011;5479;52.046;6.314;2022-07-12T05:09:28;9.90;;;9.00;;
10851;SDS011;5479;52.046;6.314;2022-07-12T05:11:56;9.60;;;8.70;;
10851;SDS011;5479;52.046;6.314;2022-07-12T05:14:24;10.27;;;9.20;;
10851;SDS011;5479;52.046;6.314;2022-07-12T05:16:52;10.93;;;9.93;;
10851;SDS011;5479;52.046;6.314;2022-07-12T05:19:20;9.90;;;8.87;;
10851;SDS011;5479;52.046;6.314;2022-07-12T05:21:48;11.33;;;10.33;;
10851;SDS011;5479;52.046;6.314;2022-07-12T05:24:16;12.37;;;11.10;;
10851;SDS011;5479;52.046;6.314;2022-07-12T05:26:45;12.43;;;11.10;;
10851;SDS011;5479;52.046;6.314;2022-07-12T05:29:13;13.10;;;11.80;;
10851;SDS011;5479;52.046;6.314;2022-07-12T05:31:41;11.63;;;10.53;;
10851;SDS011;5479;52.046;6.314;2022-07-12T05:34:09;12.67;;;11.47;;
10851;SDS011;5479;52.046;6.314;2022-07-12T05:36:37;13.20;;;11.90;;
10851;SDS011;5479;52.046;6.314;2022-07-12T05:39:05;12.17;;;11.07;;
10851;SDS011;5479;52.046;6.314;2022-07-12T05:41:33;12.37;;;11.13;;
10851;SDS011;5479;52.046;6.314;2022-07-12T05:44:03;14.27;;;12.97;;
10851;SDS011;5479;52.046;6.314;2022-07-12T05:46:31;14.07;;;12.67;;
10851;SDS011;5479;52.046;6.314;2022-07-12T05:49:00;12.67;;;11.47;;
10851;SDS011;5479;52.046;6.314;2022-07-12T05:51:28;13.13;;;11.93;;
10851;SDS011;5479;52.046;6.314;2022-07-12T05:54:13;11.83;;;10.73;;
10851;SDS011;5479;52.046;6.314;2022-07-12T05:56:41;11.27;;;10.27;;
10851;SDS011;5479;52.046;6.314;2022-07-12T05:59:10;10.10;;;9.20;;
10851;SDS011;5479;52.046;6.314;2022-07-12T06:01:38;11.33;;;10.23;;
10851;SDS011;5479;52.046;6.314;2022-07-12T06:04:06;10.40;;;9.40;;
10851;SDS011;5479;52.046;6.314;2022-07-12T06:06:34;9.77;;;8.87;;
10851;SDS011;5479;52.046;6.314;2022-07-12T06:09:03;9.13;;;8.23;;
10851;SDS011;5479;52.046;6.314;2022-07-12T06:11:31;8.43;;;7.63;;
10851;SDS011;5479;52.046;6.314;2022-07-12T06:13:59;9.60;;;8.67;;
10851;SDS011;5479;52.046;6.314;2022-07-12T06:16:28;9.30;;;8.40;;
10851;SDS011;5479;52.046;6.314;2022-07-12T06:18:57;11.80;;;10.70;;
10851;SDS011;5479;52.046;6.314;2022-07-12T06:21:24;12.50;;;11.17;;
10851;SDS011;5479;52.046;6.314;2022-07-12T06:23:52;12.20;;;11.00;;
10851;SDS011;5479;52.046;6.314;2022-07-12T06:26:20;10.47;;;9.57;;
10851;SDS011;5479;52.046;6.314;2022-07-12T06:28:48;10.97;;;9.87;;
10851;SDS011;5479;52.046;6.314;2022-07-12T06:31:16;10.80;;;9.80;;
10851;SDS011;5479;52.046;6.314;2022-07-12T06:33:45;10.40;;;9.40;;
10851;SDS011;5479;52.046;6.314;2022-07-12T06:36:13;9.50;;;8.60;;
10851;SDS011;5479;52.046;6.314;2022-07-12T06:38:41;8.68;;;7.88;;
10851;SDS011;5479;52.046;6.314;2022-07-12T06:41:09;8.25;;;7.45;;
10851;SDS011;5479;52.046;6.314;2022-07-12T06:43:37;8.00;;;7.30;;
10851;SDS011;5479;52.046;6.314;2022-07-12T06:46:05;5.47;;;4.93;;
10851;SDS011;5479;52.046;6.314;2022-07-12T06:48:33;7.88;;;6.70;;
10851;SDS011;5479;52.046;6.314;2022-07-12T06:51:02;7.50;;;6.45;;
10851;SDS011;5479;52.046;6.314;2022-07-12T06:53:30;4.82;;;4.30;;
10851;SDS011;5479;52.046;6.314;2022-07-12T06:55:58;5.68;;;4.65;;
10851;SDS011;5479;52.046;6.314;2022-07-12T06:58:26;7.20;;;6.50;;
10851;SDS011;5479;52.046;6.314;2022-07-12T07:00:54;5.90;;;5.13;;
10851;SDS011;5479;52.046;6.314;2022-07-12T07:03:22;7.78;;;7.07;;
10851;SDS011;5479;52.046;6.314;2022-07-12T07:05:50;4.80;;;4.13;;
10851;SDS011;5479;52.046;6.314;2022-07-12T07:08:19;5.82;;;5.22;;
10851;SDS011;5479;52.046;6.314;2022-07-12T07:10:47;5.68;;;4.90;;
10851;SDS011;5479;52.046;6.314;2022-07-12T07:13:15;5.80;;;4.53;;
10851;SDS011;5479;52.046;6.314;2022-07-12T07:15:43;5.05;;;3.83;;
10851;SDS011;5479;52.046;6.314;2022-07-12T07:18:11;4.82;;;3.17;;
10851;SDS011;5479;52.046;6.314;2022-07-12T07:20:39;5.72;;;5.13;;
10851;SDS011;5479;52.046;6.314;2022-07-12T07:23:07;4.70;;;3.55;;
10851;SDS011;5479;52.046;6.314;2022-07-12T07:25:37;4.90;;;3.42;;
10851;SDS011;5479;52.046;6.314;2022-07-12T07:28:05;4.80;;;3.45;;
10851;SDS011;5479;52.046;6.314;2022-07-12T07:30:33;5.35;;;4.85;;
10851;SDS011;5479;52.046;6.314;2022-07-12T07:33:18;6.47;;;3.50;;
10851;SDS011;5479;52.046;6.314;2022-07-12T07:35:46;5.13;;;3.85;;
10851;SDS011;5479;52.046;6.314;2022-07-12T07:38:14;5.57;;;4.68;;
10851;SDS011;5479;52.046;6.314;2022-07-12T07:40:44;6.72;;;5.50;;
10851;SDS011;5479;52.046;6.314;2022-07-12T07:43:12;3.85;;;2.50;;
10851;SDS011;5479;52.046;6.314;2022-07-12T07:45:40;3.67;;;2.80;;
10851;SDS011;5479;52.046;6.314;2022-07-12T07:48:08;3.47;;;2.40;;
10851;SDS011;5479;52.046;6.314;2022-07-12T07:50:37;3.60;;;2.88;;
10851;SDS011;5479;52.046;6.314;2022-07-12T07:53:05;3.55;;;2.55;;
10851;SDS011;5479;52.046;6.314;2022-07-12T07:55:33;2.95;;;2.15;;
10851;SDS011;5479;52.046;6.314;2022-07-12T07:58:02;3.60;;;2.13;;
10851;SDS011;5479;52.046;6.314;2022-07-12T08:00:31;2.63;;;2.42;;
10851;SDS011;5479;52.046;6.314;2022-07-12T08:02:57;4.13;;;2.60;;
10851;SDS011;5479;52.046;6.314;2022-07-12T08:05:25;3.47;;;2.80;;
10851;SDS011;5479;52.046;6.314;2022-07-12T08:07:53;3.60;;;2.15;;
10851;SDS011;5479;52.046;6.314;2022-07-12T08:10:21;3.05;;;2.50;;
10851;SDS011;5479;52.046;6.314;2022-07-12T08:12:49;4.38;;;3.05;;
10851;SDS011;5479;52.046;6.314;2022-07-12T08:15:19;4.30;;;2.60;;
10851;SDS011;5479;52.046;6.314;2022-07-12T08:17:47;4.60;;;3.47;;
10851;SDS011;5479;52.046;6.314;2022-07-12T08:20:14;3.42;;;2.70;;
10851;SDS011;5479;52.046;6.314;2022-07-12T08:22:42;3.65;;;2.80;;
10851;SDS011;5479;52.046;6.314;2022-07-12T08:25:11;3.40;;;3.10;;
10851;SDS011;5479;52.046;6.314;2022-07-12T08:27:39;3.67;;;2.30;;
10851;SDS011;5479;52.046;6.314;2022-07-12T08:30:07;4.88;;;3.42;;
10851;SDS011;5479;52.046;6.314;2022-07-12T08:32:41;4.85;;;3.60;;
10851;SDS011;5479;52.046;6.314;2022-07-12T08:35:10;5.13;;;3.88;;
10851;SDS011;5479;52.046;6.314;2022-07-12T08:37:39;4.43;;;3.17;;
10851;SDS011;5479;52.046;6.314;2022-07-12T08:40:07;4.38;;;2.85;;
10851;SDS011;5479;52.046;6.314;2022-07-12T08:42:36;4.05;;;2.72;;
10851;SDS011;5479;52.046;6.314;2022-07-12T08:45:08;4.68;;;2.45;;
10851;SDS011;5479;52.046;6.314;2022-07-12T08:47:36;3.95;;;3.50;;
10851;SDS011;5479;52.046;6.314;2022-07-12T08:50:15;3.85;;;2.67;;
10851;SDS011;5479;52.046;6.314;2022-07-12T08:52:44;3.13;;;2.70;;
10851;SDS011;5479;52.046;6.314;2022-07-12T08:55:20;5.35;;;3.30;;
10851;SDS011;5479;52.046;6.314;2022-07-12T08:57:51;3.72;;;2.47;;
10851;SDS011;5479;52.046;6.314;2022-07-12T09:00:21;5.03;;;3.03;;
10851;SDS011;5479;52.046;6.314;2022-07-12T09:02:50;3.60;;;3.00;;
10851;SDS011;5479;52.046;6.314;2022-07-12T09:05:21;4.68;;;2.13;;
10851;SDS011;5479;52.046;6.314;2022-07-12T09:07:50;2.33;;;1.80;;
10851;SDS011;5479;52.046;6.314;2022-07-12T09:10:18;3.70;;;2.80;;
10851;SDS011;5479;52.046;6.314;2022-07-12T09:12:46;3.83;;;3.03;;
10851;SDS011;5479;52.046;6.314;2022-07-12T09:15:17;4.07;;;3.15;;
10851;SDS011;5479;52.046;6.314;2022-07-12T09:17:54;4.78;;;3.88;;
10851;SDS011;5479;52.046;6.314;2022-07-12T09:20:26;3.38;;;2.70;;
10851;SDS011;5479;52.046;6.314;2022-07-12T09:22:55;3.17;;;2.60;;
10851;SDS011;5479;52.046;6.314;2022-07-12T09:25:25;4.18;;;3.20;;
10851;SDS011;5479;52.046;6.314;2022-07-12T09:27:54;3.33;;;2.10;;
10851;SDS011;5479;52.046;6.314;2022-07-12T09:30:23;3.42;;;2.30;;
10851;SDS011;5479;52.046;6.314;2022-07-12T09:32:52;3.17;;;1.83;;
10851;SDS011;5479;52.046;6.314;2022-07-12T09:36:00;3.22;;;1.90;;
10851;SDS011;5479;52.046;6.314;2022-07-12T09:38:35;4.57;;;3.63;;
10851;SDS011;5479;52.046;6.314;2022-07-12T09:41:04;3.65;;;1.80;;
10851;SDS011;5479;52.046;6.314;2022-07-12T09:43:33;4.32;;;2.70;;
10851;SDS011;5479;52.046;6.314;2022-07-12T09:46:01;3.78;;;2.70;;
10851;SDS011;5479;52.046;6.314;2022-07-12T09:48:32;5.40;;;3.75;;
10851;SDS011;5479;52.046;6.314;2022-07-12T09:51:03;3.80;;;2.50;;
10851;SDS011;5479;52.046;6.314;2022-07-12T09:53:38;3.85;;;2.70;;
10851;SDS011;5479;52.046;6.314;2022-07-12T09:56:10;4.18;;;3.03;;
10851;SDS011;5479;52.046;6.314;2022-07-12T09:58:40;3.78;;;2.50;;
10851;SDS011;5479;52.046;6.314;2022-07-12T10:01:15;4.40;;;3.00;;
10851;SDS011;5479;52.046;6.314;2022-07-12T10:03:44;6.07;;;2.80;;
10851;SDS011;5479;52.046;6.314;2022-07-12T10:06:16;3.83;;;2.20;;
10851;SDS011;5479;52.046;6.314;2022-07-12T10:08:51;3.83;;;2.63;;
10851;SDS011;5479;52.046;6.314;2022-07-12T10:11:20;3.25;;;2.22;;
10851;SDS011;5479;52.046;6.314;2022-07-12T10:13:49;3.53;;;2.17;;
10851;SDS011;5479;52.046;6.314;2022-07-12T10:16:24;5.47;;;2.90;;
10851;SDS011;5479;52.046;6.314;2022-07-12T10:21:50;5.05;;;2.83;;
10851;SDS011;5479;52.046;6.314;2022-07-12T10:27:28;5.15;;;2.90;;
10851;SDS011;5479;52.046;6.314;2022-07-12T10:30:18;4.28;;;2.55;;
10851;SDS011;5479;52.046;6.314;2022-07-12T10:32:47;3.70;;;2.70;;
10851;SDS011;5479;52.046;6.314;2022-07-12T10:35:17;4.13;;;2.30;;
10851;SDS011;5479;52.046;6.314;2022-07-12T10:40:48;8.93;;;3.22;;
10851;SDS011;5479;52.046;6.314;2022-07-12T10:43:21;5.72;;;2.35;;
10851;SDS011;5479;52.046;6.314;2022-07-12T10:46:13;3.28;;;2.10;;
10851;SDS011;5479;52.046;6.314;2022-07-12T10:48:45;3.38;;;2.40;;
10851;SDS011;5479;52.046;6.314;2022-07-12T10:51:13;3.10;;;2.30;;
10851;SDS011;5479;52.046;6.314;2022-07-12T10:53:44;5.40;;;3.40;;
10851;SDS011;5479;52.046;6.314;2022-07-12T10:56:15;6.15;;;2.42;;
10851;SDS011;5479;52.046;6.314;2022-07-12T10:58:45;4.05;;;2.25;;
10851;SDS011;5479;52.046;6.314;2022-07-12T11:01:16;3.58;;;2.30;;
10851;SDS011;5479;52.046;6.314;2022-07-12T11:03:45;3.42;;;2.40;;
10851;SDS011;5479;52.046;6.314;2022-07-12T11:06:14;3.38;;;2.45;;
10851;SDS011;5479;52.046;6.314;2022-07-12T11:08:55;4.90;;;2.88;;
10851;SDS011;5479;52.046;6.314;2022-07-12T11:11:26;3.58;;;2.55;;
10851;SDS011;5479;52.046;6.314;2022-07-12T11:13:55;4.78;;;2.20;;
10851;SDS011;5479;52.046;6.314;2022-07-12T11:16:24;3.63;;;2.30;;
10851;SDS011;5479;52.046;6.314;2022-07-12T11:18:53;4.28;;;2.40;;
10851;SDS011;5479;52.046;6.314;2022-07-12T11:21:22;3.30;;;2.65;;
10851;SDS011;5479;52.046;6.314;2022-07-12T11:23:51;4.25;;;2.60;;
10851;SDS011;5479;52.046;6.314;2022-07-12T11:26:22;5.88;;;2.70;;
10851;SDS011;5479;52.046;6.314;2022-07-12T11:28:50;2.83;;;1.80;;
10851;SDS011;5479;52.046;6.314;2022-07-12T11:31:18;3.47;;;2.17;;
10851;SDS011;5479;52.046;6.314;2022-07-12T11:33:48;3.67;;;2.08;;
10851;SDS011;5479;52.046;6.314;2022-07-12T11:36:18;4.07;;;2.22;;
10851;SDS011;5479;52.046;6.314;2022-07-12T11:38:46;4.00;;;2.00;;
10851;SDS011;5479;52.046;6.314;2022-07-12T11:41:15;3.25;;;2.20;;
10851;SDS011;5479;52.046;6.314;2022-07-12T11:43:44;3.65;;;2.20;;
10851;SDS011;5479;52.046;6.314;2022-07-12T11:46:13;3.97;;;2.10;;
10851;SDS011;5479;52.046;6.314;2022-07-12T11:48:42;2.33;;;1.75;;
10851;SDS011;5479;52.046;6.314;2022-07-12T11:51:11;3.42;;;1.95;;
10851;SDS011;5479;52.046;6.314;2022-07-12T11:53:40;2.88;;;1.77;;
10851;SDS011;5479;52.046;6.314;2022-07-12T11:56:08;4.57;;;2.17;;
10851;SDS011;5479;52.046;6.314;2022-07-12T11:58:37;3.80;;;2.10;;
10851;SDS011;5479;52.046;6.314;2022-07-12T12:01:09;3.90;;;1.98;;
10851;SDS011;5479;52.046;6.314;2022-07-12T12:03:42;3.58;;;2.10;;
10851;SDS011;5479;52.046;6.314;2022-07-12T12:06:11;3.67;;;2.08;;
10851;SDS011;5479;52.046;6.314;2022-07-12T12:08:39;3.20;;;1.88;;
10851;SDS011;5479;52.046;6.314;2022-07-12T12:11:07;2.55;;;1.80;;
10851;SDS011;5479;52.046;6.314;2022-07-12T12:13:35;2.75;;;1.85;;
10851;SDS011;5479;52.046;6.314;2022-07-12T12:16:04;4.10;;;1.95;;
10851;SDS011;5479;52.046;6.314;2022-07-12T12:18:35;5.13;;;2.30;;
10851;SDS011;5479;52.046;6.314;2022-07-12T12:21:05;4.10;;;2.60;;
10851;SDS011;5479;52.046;6.314;2022-07-12T12:23:34;5.03;;;2.38;;
10851;SDS011;5479;52.046;6.314;2022-07-12T12:26:10;3.53;;;1.90;;
10851;SDS011;5479;52.046;6.314;2022-07-12T12:28:44;2.03;;;1.77;;
10851;SDS011;5479;52.046;6.314;2022-07-12T12:31:14;1.88;;;1.65;;
10851;SDS011;5479;52.046;6.314;2022-07-12T12:33:46;5.07;;;2.10;;
10851;SDS011;5479;52.046;6.314;2022-07-12T12:36:18;5.10;;;2.10;;
10851;SDS011;5479;52.046;6.314;2022-07-12T12:38:48;4.20;;;1.70;;
10851;SDS011;5479;52.046;6.314;2022-07-12T12:41:17;2.85;;;1.90;;
10851;SDS011;5479;52.046;6.314;2022-07-12T12:43:48;1.88;;;1.60;;
10851;SDS011;5479;52.046;6.314;2022-07-12T12:49:15;3.47;;;1.60;;
10851;SDS011;5479;52.046;6.314;2022-07-12T12:51:50;4.63;;;1.70;;
10851;SDS011;5479;52.046;6.314;2022-07-12T12:54:32;2.10;;;1.65;;
10851;SDS011;5479;52.046;6.314;2022-07-12T12:57:01;3.78;;;1.77;;
10851;SDS011;5479;52.046;6.314;2022-07-12T12:59:29;2.78;;;1.65;;
10851;SDS011;5479;52.046;6.314;2022-07-12T13:01:58;2.00;;;1.67;;
10851;SDS011;5479;52.046;6.314;2022-07-12T13:04:28;2.90;;;1.60;;
10851;SDS011;5479;52.046;6.314;2022-07-12T13:06:56;2.45;;;1.67;;
10851;SDS011;5479;52.046;6.314;2022-07-12T13:09:24;3.65;;;1.65;;
10851;SDS011;5479;52.046;6.314;2022-07-12T13:11:53;2.47;;;1.70;;
10851;SDS011;5479;52.046;6.314;2022-07-12T13:14:21;2.00;;;1.80;;
10851;SDS011;5479;52.046;6.314;2022-07-12T13:16:49;1.83;;;1.70;;
10851;SDS011;5479;52.046;6.314;2022-07-12T13:19:16;3.97;;;1.83;;
10851;SDS011;5479;52.046;6.314;2022-07-12T13:21:46;3.30;;;1.73;;
10851;SDS011;5479;52.046;6.314;2022-07-12T13:24:14;3.33;;;2.10;;
10851;SDS011;5479;52.046;6.314;2022-07-12T13:26:42;2.97;;;1.80;;
10851;SDS011;5479;52.046;6.314;2022-07-12T13:29:10;2.08;;;1.67;;
10851;SDS011;5479;52.046;6.314;2022-07-12T13:31:39;2.88;;;1.80;;
10851;SDS011;5479;52.046;6.314;2022-07-12T13:34:07;2.88;;;2.10;;
10851;SDS011;5479;52.046;6.314;2022-07-12T13:36:35;2.10;;;1.65;;
10851;SDS011;5479;52.046;6.314;2022-07-12T13:39:04;1.70;;;1.58;;
10851;SDS011;5479;52.046;6.314;2022-07-12T13:41:46;2.00;;;1.80;;
10851;SDS011;5479;52.046;6.314;2022-07-12T13:44:14;3.58;;;1.90;;
10851;SDS011;5479;52.046;6.314;2022-07-12T13:46:42;2.42;;;2.00;;
10851;SDS011;5479;52.046;6.314;2022-07-12T13:49:10;3.35;;;1.92;;
10851;SDS011;5479;52.046;6.314;2022-07-12T13:51:38;3.15;;;2.00;;
10851;SDS011;5479;52.046;6.314;2022-07-12T13:54:08;2.60;;;1.80;;
10851;SDS011;5479;52.046;6.314;2022-07-12T13:56:35;2.40;;;1.80;;
10851;SDS011;5479;52.046;6.314;2022-07-12T13:59:03;4.07;;;2.10;;
10851;SDS011;5479;52.046;6.314;2022-07-12T14:01:31;3.22;;;2.00;;
10851;SDS011;5479;52.046;6.314;2022-07-12T14:04:00;1.63;;;1.52;;
10851;SDS011;5479;52.046;6.314;2022-07-12T14:06:28;4.28;;;1.85;;
10851;SDS011;5479;52.046;6.314;2022-07-12T14:08:56;2.78;;;1.55;;
10851;SDS011;5479;52.046;6.314;2022-07-12T14:11:26;4.10;;;1.77;;
10851;SDS011;5479;52.046;6.314;2022-07-12T14:13:54;2.50;;;1.80;;
10851;SDS011;5479;52.046;6.314;2022-07-12T14:16:22;3.50;;;2.22;;
10851;SDS011;5479;52.046;6.314;2022-07-12T14:18:50;2.88;;;1.83;;
10851;SDS011;5479;52.046;6.314;2022-07-12T14:21:18;2.70;;;1.80;;
10851;SDS011;5479;52.046;6.314;2022-07-12T14:23:45;4.05;;;1.80;;
10851;SDS011;5479;52.046;6.314;2022-07-12T14:26:13;2.50;;;1.75;;
10851;SDS011;5479;52.046;6.314;2022-07-12T14:28:42;5.40;;;1.98;;
10851;SDS011;5479;52.046;6.314;2022-07-12T14:31:10;4.35;;;2.20;;
10851;SDS011;5479;52.046;6.314;2022-07-12T14:33:38;2.30;;;2.10;;
10851;SDS011;5479;52.046;6.314;2022-07-12T14:36:06;3.65;;;2.08;;
10851;SDS011;5479;52.046;6.314;2022-07-12T14:38:34;2.70;;;2.10;;
10851;SDS011;5479;52.046;6.314;2022-07-12T14:41:02;4.10;;;2.00;;
10851;SDS011;5479;52.046;6.314;2022-07-12T14:43:30;2.70;;;2.10;;
10851;SDS011;5479;52.046;6.314;2022-07-12T14:46:00;3.10;;;2.25;;
10851;SDS011;5479;52.046;6.314;2022-07-12T14:48:27;2.67;;;1.98;;
10851;SDS011;5479;52.046;6.314;2022-07-12T14:50:55;4.43;;;2.10;;
10851;SDS011;5479;52.046;6.314;2022-07-12T14:53:23;2.58;;;2.00;;
10851;SDS011;5479;52.046;6.314;2022-07-12T14:55:51;3.58;;;1.88;;
10851;SDS011;5479;52.046;6.314;2022-07-12T14:58:19;4.10;;;2.15;;
10851;SDS011;5479;52.046;6.314;2022-07-12T15:00:47;2.20;;;1.83;;
10851;SDS011;5479;52.046;6.314;2022-07-12T15:03:16;2.40;;;1.80;;
10851;SDS011;5479;52.046;6.314;2022-07-12T15:05:44;3.78;;;1.90;;
10851;SDS011;5479;52.046;6.314;2022-07-12T15:08:13;2.63;;;1.92;;
10851;SDS011;5479;52.046;6.314;2022-07-12T15:10:41;3.35;;;1.70;;
10851;SDS011;5479;52.046;6.314;2022-07-12T15:13:09;2.97;;;1.98;;
10851;SDS011;5479;52.046;6.314;2022-07-12T15:15:36;2.95;;;2.05;;
10851;SDS011;5479;52.046;6.314;2022-07-12T15:18:04;2.95;;;2.10;;
10851;SDS011;5479;52.046;6.314;2022-07-12T15:20:34;2.83;;;1.80;;
10851;SDS011;5479;52.046;6.314;2022-07-12T15:23:01;2.15;;;1.90;;
10851;SDS011;5479;52.046;6.314;2022-07-12T15:25:30;3.00;;;2.03;;